To NAV CANADA Home Page Login to a new session Search on AWWS site Feedback and Comments Disclaimer Vers la page française équivalente Tips FAQ What's new on the site To the Forecasts and Observations / NOTAM section To "File a Flight Plan" website Publications and other links Update of the User's profile FIC Telephone Numbers My Weather Data Folder Route Weather Data Regional Weather Data Local Weather Data To the Forecasts and Observations / NOTAM section
Request Generated 04/18/2014 at 10:33:53 UTC . Weather information available at that time is displayed.

METAR/TAF

LONDON/ON    

METAR CYXU 181000Z 19005KT 15SM OVC180 07/M00 A3025 RMK AC8 SLP247=
METAR CYXU 180900Z 17008KT 15SM OVC110 07/M00 A3024 RMK AC8 SLP244=
METAR CYXU 180800Z 17010KT 15SM BKN088 OVC110 07/00 A3024 RMK AC5AS3
SLP246=

TAF CYXU 180538Z 1806/1906 12008KT P6SM SCT090 BKN200
FM180900 19010KT P6SM BKN090
FM181400 23010KT P6SM -SHRA OVC025 TEMPO 1814/1819 5SM -SHRA BR
OVC020
FM181900 31012KT P6SM BKN025
FM182100 31010KT P6SM SCT040
RMK NXT FCST BY 181200Z=
Your time UTC time
Weather data provided by Environment Canada and NAV CANADA